Dinosaur, CO (81610)

2:31 AM MDT on September 17, 2014 (GMT -0600)
Meeker | Change Station
CLOSE
Current Station
Airport
Location: Meeker,
Elevation: 6421 ft
Nearby Weather Stations

Elev 6421 ft 40.05 °N, 107.89 °W | Updated 38 minutes ago

Clear
Clear
53 °F
Feels Like 53 °F
N
8
Wind Variable Wind from ENE

Today
High -- | Low -- °F
--% Chance of Precip.
Yesterday
High -- | Low -- °F
Precip. -- in
6:58 AM 7:20 PM
Last Quarter, 38% visible
Pressure 29.96 in
Visibility 10.0 miles
Clouds Clear
Dew Point 38 °F
Humidity 57%
Rainfall 0.00 in
Snow Depth Not available.
UV 0 out of 12
Pollen 5.50 out of 12
Air Quality Not available.
Flu Activity Not available.
METAR KEEO 170753Z AUTO 06007KT 10SM CLR 12/03 A3022 RMK AO2 SLP143 T01170033

More Conditions Fewer Conditions

Pressure 29.96 in
Visibility 10.0 miles
Clouds Clear
Dew Point 38 °F
Humidity 57%
Rainfall 0.00 in
Snow Depth Not available.
UV 0 out of 12
Pollen 5.50 out of 12
Air Quality Not available.
Flu Activity Not available.
METAR KEEO 170753Z AUTO 06007KT 10SM CLR 12/03 A3022 RMK AO2 SLP143 T01170033

More Conditions Fewer Conditions

10-Day Weather Forecast

Almanac

Astronomy

Sep. 17, 2014 Rise Set
Actual Time 6:58 AM MDT 7:20 PM MDT
Civil Twilight 6:30 AM MDT 7:47 PM MDT
Nautical Twilight 5:58 AM MDT 8:19 PM MDT
Astronomical Twilight 5:25 AM MDT 8:52 PM MDT
Moon 1:00 AM MDT 3:33 PM MDT
Length of Visible Light 13h 17m
Length of Day
12h 22m
Tomorrow will be 2m 38s shorter.
Last Quarter, 38% of the Moon is Illuminated
Today
Last Quarter
Sep 24
New
Oct 1
First Quarter
Oct 8
Full
Oct 15
Last Quarter

Today's Extremes

State Highs State Lows

Community

WunderPhotos

Upload Photos

1,753,990 photos uploaded!

Nearby

Snow Depth

Station Depth Elevation
Grayback 0 in 11620 ft
Crosho 0 in 9100 ft
Buckskin Joe 0 in 11150 ft
Phantom Valley 0 in 9030 ft
Park Cone 0 in 9600 ft

Earthquake Activity

City Distance Mag. Time & Date
No recent earthquake activity has been reported nearby.
Minimum magnitude displayed is 2.5.

Coastal Water Temperatures

Place Temperature
No Stations Reporting

Nearby Weather Stations